Skip Navigation

Christman Field Latest Observations

Switch to metric unitsOther observation timesWeekly graphs

Date Time
MST
Temp
°F
RH
%
DewPt
°F
Wind
mph
Dir
°
Gust
mph
Dir
°
Press
in Hg
Solar
W/m^2
Prec
in
2024-03-03 03:30 34.2 33.0 8.1 24.9 312 42.9 305 24.462 0.0 0.00
2024-03-03 03:25 34.2 36.4 10.2 24.9 321 45.6 287 24.468 0.1 0.00
2024-03-03 03:20 34.0 36.1 9.9 26.5 306 35.8 292 24.470 0.1 0.00
2024-03-03 03:15 34.1 38.8 11.6 23.4 304 34.8 285 24.468 0.1 0.00
2024-03-03 03:10 33.7 37.8 10.7 18.9 294 40.2 292 24.472 0.1 0.00
2024-03-03 03:05 33.9 43.2 13.8 18.8 316 24.6 304 24.470 0.1 0.00
2024-03-03 03:00 34.1 43.3 14.1 20.5 294 25.7 311 24.463 0.1 0.00
2024-03-03 02:55 34.3 40.9 13.0 22.8 317 27.2 289 24.460 0.1 0.00
2024-03-03 02:50 34.3 41.2 13.2 20.8 310 28.2 316 24.466 0.1 0.00
2024-03-03 02:45 34.5 40.0 12.6 25.7 316 37.2 281 24.462 0.1 0.00
2024-03-03 02:40 34.6 39.6 12.5 32.6 299 45.8 284 24.456 0.1 0.00
2024-03-03 02:35 34.7 42.6 14.3 32.2 305 41.1 300 24.456 0.1 0.00
2024-03-03 02:30 35.2 39.8 13.1 33.0 305 45.7 291 24.455 0.1 0.00
2024-03-03 02:25 35.0 39.5 12.8 26.5 308 40.7 290 24.455 0.0 0.00
2024-03-03 02:20 34.9 44.0 15.2 22.8 317 32.7 298 24.430 0.1 0.00
2024-03-03 02:15 35.0 42.1 14.3 25.2 313 32.2 321 24.433 0.0 0.00
2024-03-03 02:10 34.8 44.0 15.1 26.8 305 36.2 296 24.435 0.0 0.00
2024-03-03 02:05 34.5 46.7 16.1 21.6 289 29.6 299 24.436 0.1 0.00
2024-03-03 02:00 34.3 49.6 17.4 21.8 311 32.6 299 24.434 0.1 0.00
2024-03-03 01:55 34.4 51.5 18.4 21.4 314 28.0 311 24.434 0.0 0.00
2024-03-03 01:50 34.4 52.1 18.6 20.7 317 30.2 320 24.436 0.0 0.00
2024-03-03 01:45 34.5 53.3 19.2 21.9 311 28.1 322 24.433 0.0 0.00
2024-03-03 01:40 34.8 54.6 20.1 23.6 331 32.0 317 24.421 0.0 0.00
2024-03-03 01:35 35.0 55.3 20.6 21.7 285 31.1 295 24.417 0.0 0.00
2024-03-03 01:30 35.3 55.2 20.9 25.5 303 31.1 296 24.416 0.0 0.00
2024-03-03 01:25 35.4 58.2 22.2 23.8 296 30.1 308 24.409 0.1 0.00
2024-03-03 01:20 35.7 56.0 21.5 29.5 314 39.9 285 24.403 0.1 0.00
2024-03-03 01:15 35.5 56.7 21.7 27.0 310 39.4 278 24.414 0.1 0.00
2024-03-03 01:10 35.1 66.8 25.2 24.4 304 32.3 307 24.418 0.0 0.00
2024-03-03 01:05 34.2 72.0 26.1 22.6 319 33.2 308 24.423 0.0 0.00